Time;durP1;ratioP1;P1;durP2;ratioP2;P2;SDS_P1;SDS_P2;PMS_P1;PMS_P2;Temp;Humidity;BMP_temperature;BMP_pressure;BME280_temperature;BME280_humidity;BME280_pressure;Samples;Min_cycle;Max_cycle;Signal;HPM_P1;HPM_P2
2022/01/11 00:00:30;;;;;;;22.83;12.93;;;;;;;;;;5125466;27;20046;-61
2022/01/11 00:02:56;;;;;;;17.00;11.57;;;;;;;;;;5124347;27;20051;-61
2022/01/11 00:05:41;;;;;;;21.83;12.90;;;;;;;;;;5129615;27;20046;-60
2022/01/11 00:08:10;;;;;;;19.30;11.93;;;;;;;;;;5124595;27;20171;-60
2022/01/11 00:10:51;;;;;;;25.95;12.20;;;;;;;;;;5124407;27;20412;-61
2022/01/11 00:13:18;;;;;;;19.83;12.20;;;;;;;;;;5128605;27;20484;-61
2022/01/11 00:15:45;;;;;;;18.23;11.93;;;;;;;;;;5128030;27;20131;-61
2022/01/11 00:18:11;;;;;;;17.23;11.20;;;;;;;;;;5126896;27;20043;-61
2022/01/11 00:20:38;;;;;;;20.05;12.25;;;;;;;;;;5121821;27;20043;-61
2022/01/11 00:25:32;;;;;;;19.55;11.23;;;;;;;;;;5127747;27;20055;-61
2022/01/11 00:27:58;;;;;;;19.17;11.98;;;;;;;;;;5126923;27;20047;-60
2022/01/11 00:30:30;;;;;;;22.60;11.68;;;;;;;;;;5122045;27;20064;-61
2022/01/11 00:32:59;;;;;;;20.33;11.80;;;;;;;;;;5120465;27;20058;-62
2022/01/11 00:35:28;;;;;;;21.23;12.68;;;;;;;;;;5111818;27;20396;-60
2022/01/11 00:37:55;;;;;;;22.05;11.90;;;;;;;;;;5126586;27;20046;-61
2022/01/11 00:40:21;;;;;;;18.98;11.82;;;;;;;;;;5129819;27;20047;-60
2022/01/11 00:42:47;;;;;;;18.88;11.60;;;;;;;;;;5127030;27;20031;-60
2022/01/11 00:45:13;;;;;;;23.10;12.48;;;;;;;;;;5128737;27;20035;-60
2022/01/11 00:47:40;;;;;;;20.50;11.90;;;;;;;;;;5108570;27;20043;-62
2022/01/11 00:50:07;;;;;;;22.65;12.23;;;;;;;;;;5129317;27;20392;-61
2022/01/11 00:52:33;;;;;;;26.10;14.10;;;;;;;;;;5128028;27;20031;-60
2022/01/11 00:54:59;;;;;;;23.48;12.88;;;;;;;;;;5129231;27;20057;-60
2022/01/11 00:57:25;;;;;;;24.05;13.07;;;;;;;;;;5126012;27;20489;-61
2022/01/11 00:59:52;;;;;;;25.67;13.60;;;;;;;;;;5124697;27;20039;-62
2022/01/11 01:02:18;;;;;;;24.92;12.73;;;;;;;;;;5121641;27;20546;-61
2022/01/11 01:04:44;;;;;;;30.17;13.45;;;;;;;;;;5104974;27;20432;-60
2022/01/11 01:07:10;;;;;;;22.88;13.35;;;;;;;;;;5125094;27;20047;-61
2022/01/11 01:09:54;;;;;;;24.63;13.23;;;;;;;;;;5122904;27;20122;-60
2022/01/11 01:12:20;;;;;;;25.63;13.55;;;;;;;;;;5124202;27;20035;-60
2022/01/11 01:14:47;;;;;;;27.25;13.43;;;;;;;;;;5124698;27;20038;-60
2022/01/11 01:17:13;;;;;;;27.27;13.93;;;;;;;;;;5125539;27;20042;-59
2022/01/11 01:19:39;;;;;;;24.08;13.05;;;;;;;;;;5127977;27;20027;-61
2022/01/11 01:22:05;;;;;;;23.13;12.38;;;;;;;;;;5124967;27;20042;-61
2022/01/11 01:24:31;;;;;;;23.05;12.77;;;;;;;;;;5124167;27;20028;-60
2022/01/11 01:26:57;;;;;;;25.67;13.52;;;;;;;;;;5125239;28;20400;-61
2022/01/11 01:29:23;;;;;;;25.10;13.55;;;;;;;;;;5129389;28;20043;-59
2022/01/11 01:31:49;;;;;;;27.45;14.85;;;;;;;;;;5123031;27;20075;-60
2022/01/11 01:34:15;;;;;;;28.67;13.88;;;;;;;;;;5121629;28;20066;-62
2022/01/11 01:36:41;;;;;;;26.40;14.40;;;;;;;;;;5124979;28;20050;-61
2022/01/11 01:39:07;;;;;;;22.65;13.15;;;;;;;;;;5124782;28;20043;-60
2022/01/11 01:41:33;;;;;;;29.75;14.90;;;;;;;;;;5124600;28;20054;-62
2022/01/11 01:44:01;;;;;;;33.28;15.50;;;;;;;;;;5125660;28;20036;-60
2022/01/11 01:46:27;;;;;;;26.02;13.80;;;;;;;;;;5126042;27;21295;-61
2022/01/11 01:48:56;;;;;;;28.20;15.40;;;;;;;;;;5125954;27;20462;-62
2022/01/11 01:51:22;;;;;;;31.75;15.38;;;;;;;;;;5120330;28;20110;-60
2022/01/11 01:53:49;;;;;;;27.10;14.00;;;;;;;;;;5126813;28;20545;-61
2022/01/11 01:56:17;;;;;;;32.95;15.00;;;;;;;;;;5122502;27;20049;-62
2022/01/11 01:58:43;;;;;;;27.55;15.63;;;;;;;;;;5123141;27;20038;-61
2022/01/11 02:01:12;;;;;;;37.67;17.20;;;;;;;;;;5124010;28;20037;-61
2022/01/11 02:03:39;;;;;;;36.65;15.90;;;;;;;;;;5105708;28;20389;-60
2022/01/11 02:06:09;;;;;;;34.58;15.88;;;;;;;;;;5121894;28;20039;-61
2022/01/11 02:08:35;;;;;;;38.40;16.58;;;;;;;;;;5125341;28;20085;-62
2022/01/11 02:11:01;;;;;;;33.83;15.43;;;;;;;;;;5127728;27;20031;-60
2022/01/11 02:13:28;;;;;;;36.75;15.85;;;;;;;;;;5121765;28;20031;-61
2022/01/11 02:15:54;;;;;;;49.80;16.90;;;;;;;;;;5121258;27;20043;-60
2022/01/11 02:18:23;;;;;;;62.38;17.48;;;;;;;;;;5122466;28;20496;-59
2022/01/11 02:20:50;;;;;;;49.22;18.00;;;;;;;;;;5127756;28;20054;-60
2022/01/11 02:23:17;;;;;;;46.75;17.50;;;;;;;;;;5120263;28;20131;-62
2022/01/11 02:25:44;;;;;;;38.65;16.52;;;;;;;;;;5127661;28;20051;-61
2022/01/11 02:28:12;;;;;;;29.70;14.93;;;;;;;;;;5126931;28;20051;-61
2022/01/11 02:30:38;;;;;;;28.35;15.38;;;;;;;;;;5109488;28;20039;-61
2022/01/11 02:33:09;;;;;;;29.38;14.13;;;;;;;;;;5121705;27;20039;-60
2022/01/11 02:35:35;;;;;;;24.60;14.30;;;;;;;;;;5111846;27;20043;-61
2022/01/11 02:38:01;;;;;;;27.00;13.23;;;;;;;;;;5129275;27;20035;-61
2022/01/11 02:40:27;;;;;;;29.15;13.75;;;;;;;;;;5129596;27;20391;-60
2022/01/11 02:42:53;;;;;;;36.65;14.95;;;;;;;;;;5129572;27;20598;-60
2022/01/11 02:45:20;;;;;;;30.88;11.55;;;;;;;;;;5128743;27;20139;-60
2022/01/11 02:47:47;;;;;;;39.22;13.77;;;;;;;;;;5132285;27;20556;-59
2022/01/11 02:50:14;;;;;;;34.40;13.57;;;;;;;;;;5128959;27;20039;-60
2022/01/11 02:52:40;;;;;;;24.60;14.57;;;;;;;;;;5127022;27;20027;-61
2022/01/11 02:55:10;;;;;;;31.20;14.43;;;;;;;;;;5128523;27;20050;-61
2022/01/11 02:57:36;;;;;;;25.75;14.00;;;;;;;;;;5108944;27;20135;-62
2022/01/11 03:00:05;;;;;;;32.10;15.18;;;;;;;;;;5121981;27;20503;-61
2022/01/11 03:02:31;;;;;;;28.52;13.07;;;;;;;;;;5128387;27;20100;-61
2022/01/11 03:04:57;;;;;;;30.15;15.07;;;;;;;;;;5126409;27;20509;-61
2022/01/11 03:07:23;;;;;;;33.28;15.90;;;;;;;;;;5125679;27;20102;-61
2022/01/11 03:10:02;;;;;;;38.28;16.63;;;;;;;;;;5128138;27;20118;-62
2022/01/11 03:12:28;;;;;;;32.35;15.23;;;;;;;;;;5127424;27;20043;-62
2022/01/11 03:14:54;;;;;;;33.38;15.63;;;;;;;;;;5130219;27;20489;-61
2022/01/11 03:17:21;;;;;;;29.75;15.43;;;;;;;;;;5125603;27;20516;-60
2022/01/11 03:19:47;;;;;;;29.45;15.27;;;;;;;;;;5130154;27;20050;-60
2022/01/11 03:22:13;;;;;;;33.63;15.27;;;;;;;;;;5130728;27;20113;-60
2022/01/11 03:24:39;;;;;;;26.60;14.27;;;;;;;;;;5129754;27;20035;-61
2022/01/11 03:27:07;;;;;;;28.50;15.02;;;;;;;;;;5126508;27;20079;-60
2022/01/11 03:29:33;;;;;;;32.10;14.60;;;;;;;;;;5126653;27;20451;-60
2022/01/11 03:31:59;;;;;;;33.83;16.58;;;;;;;;;;5107982;27;20035;-62
2022/01/11 03:34:26;;;;;;;30.38;14.20;;;;;;;;;;5123190;27;20071;-60
2022/01/11 03:36:52;;;;;;;37.40;15.45;;;;;;;;;;5124290;27;20088;-61
2022/01/11 03:39:18;;;;;;;28.58;13.18;;;;;;;;;;5129003;27;20517;-61
2022/01/11 03:41:44;;;;;;;33.65;14.70;;;;;;;;;;5125610;27;20038;-60
2022/01/11 03:44:10;;;;;;;40.00;16.42;;;;;;;;;;5128747;27;20122;-60
2022/01/11 03:46:36;;;;;;;35.38;15.63;;;;;;;;;;5130427;27;20220;-61
2022/01/11 03:49:02;;;;;;;41.22;15.95;;;;;;;;;;5124440;27;20400;-60
2022/01/11 03:51:28;;;;;;;35.80;15.32;;;;;;;;;;5129538;27;20039;-61
2022/01/11 03:54:03;;;;;;;37.38;16.27;;;;;;;;;;5110857;27;20053;-60
2022/01/11 03:56:29;;;;;;;33.75;16.75;;;;;;;;;;5127956;27;20092;-60
2022/01/11 03:58:55;;;;;;;35.38;15.52;;;;;;;;;;5125886;27;20062;-60
2022/01/11 04:01:22;;;;;;;33.90;14.80;;;;;;;;;;5127472;27;20075;-60
2022/01/11 04:03:48;;;;;;;37.88;15.73;;;;;;;;;;5126066;27;20035;-61
2022/01/11 04:06:16;;;;;;;33.28;14.35;;;;;;;;;;5127848;27;20050;-62
2022/01/11 04:08:43;;;;;;;30.80;14.77;;;;;;;;;;5121959;27;20039;-61
2022/01/11 04:11:10;;;;;;;32.63;15.43;;;;;;;;;;5127774;27;20084;-61
2022/01/11 04:13:36;;;;;;;34.67;14.82;;;;;;;;;;5120708;27;20039;-61
2022/01/11 04:16:02;;;;;;;35.75;15.05;;;;;;;;;;5128214;27;20127;-59
2022/01/11 04:18:28;;;;;;;29.67;15.60;;;;;;;;;;5123927;27;20085;-61
2022/01/11 04:20:54;;;;;;;31.17;14.55;;;;;;;;;;5123459;27;20034;-59
2022/01/11 04:23:20;;;;;;;30.70;15.45;;;;;;;;;;5127238;27;20035;-60
2022/01/11 04:25:46;;;;;;;28.02;15.50;;;;;;;;;;5127260;27;20059;-61
2022/01/11 04:28:12;;;;;;;37.60;16.80;;;;;;;;;;5126726;27;20038;-60
2022/01/11 04:30:38;;;;;;;32.13;14.85;;;;;;;;;;5124056;27;20166;-60
2022/01/11 04:33:05;;;;;;;37.17;15.27;;;;;;;;;;5128960;27;20031;-62
2022/01/11 04:35:31;;;;;;;33.17;14.95;;;;;;;;;;5127581;27;20039;-60
2022/01/11 04:37:57;;;;;;;34.35;15.35;;;;;;;;;;5127288;27;20042;-63
2022/01/11 04:40:23;;;;;;;31.85;15.20;;;;;;;;;;5128385;27;20035;-61
2022/01/11 04:42:49;;;;;;;29.73;13.20;;;;;;;;;;5128268;27;20431;-60
2022/01/11 04:45:16;;;;;;;28.90;15.05;;;;;;;;;;5128240;27;20734;-62
2022/01/11 04:47:44;;;;;;;31.00;15.63;;;;;;;;;;5124990;27;20027;-59
2022/01/11 04:50:10;;;;;;;32.72;15.07;;;;;;;;;;5127790;27;20047;-62
2022/01/11 04:52:36;;;;;;;30.83;14.88;;;;;;;;;;5123751;27;20046;-61
2022/01/11 04:55:03;;;;;;;28.30;13.93;;;;;;;;;;5127946;27;20047;-61
2022/01/11 04:57:29;;;;;;;32.78;15.38;;;;;;;;;;5130115;27;20071;-61
2022/01/11 04:59:55;;;;;;;27.40;14.20;;;;;;;;;;5123063;27;20043;-61
2022/01/11 05:02:22;;;;;;;26.58;14.65;;;;;;;;;;5128633;27;20042;-60
2022/01/11 05:04:48;;;;;;;33.75;15.18;;;;;;;;;;5123532;27;20070;-61
2022/01/11 05:07:14;;;;;;;29.58;13.77;;;;;;;;;;5127614;27;20069;-60
2022/01/11 05:09:40;;;;;;;31.55;15.10;;;;;;;;;;5125743;27;20842;-60
2022/01/11 05:12:07;;;;;;;34.13;14.60;;;;;;;;;;5123307;27;20038;-60
2022/01/11 05:14:33;;;;;;;28.50;14.45;;;;;;;;;;5125690;27;20068;-60
2022/01/11 05:16:59;;;;;;;28.98;14.40;;;;;;;;;;5123074;27;20425;-61
2022/01/11 05:19:25;;;;;;;36.92;14.43;;;;;;;;;;5124962;27;20064;-61
2022/01/11 05:21:51;;;;;;;27.38;13.48;;;;;;;;;;5122001;27;20078;-60
2022/01/11 05:24:17;;;;;;;26.38;13.25;;;;;;;;;;5125101;27;20105;-60
2022/01/11 05:26:43;;;;;;;32.05;15.32;;;;;;;;;;5123019;27;20905;-60
2022/01/11 05:29:09;;;;;;;25.55;13.68;;;;;;;;;;5126318;28;20085;-59
2022/01/11 05:31:35;;;;;;;27.20;12.95;;;;;;;;;;5127096;28;20128;-62
2022/01/11 05:34:01;;;;;;;28.02;14.45;;;;;;;;;;5128827;28;20053;-61
2022/01/11 05:36:27;;;;;;;14.80;7.57;;;;;;;;;;5126387;27;20035;-60
2022/01/11 05:38:53;;;;;;;28.48;13.88;;;;;;;;;;5125489;28;20043;-59
2022/01/11 05:41:19;;;;;;;25.15;13.13;;;;;;;;;;5123343;27;20511;-60
2022/01/11 05:43:46;;;;;;;30.30;14.40;;;;;;;;;;5128272;28;20038;-60
2022/01/11 05:46:12;;;;;;;32.72;13.65;;;;;;;;;;5127675;28;20144;-61
2022/01/11 05:48:38;;;;;;;24.75;12.65;;;;;;;;;;5128017;28;20409;-60
2022/01/11 05:51:04;;;;;;;26.35;13.35;;;;;;;;;;5129072;28;20039;-62
2022/01/11 05:53:30;;;;;;;31.30;14.70;;;;;;;;;;5125056;27;20042;-60
2022/01/11 05:55:56;;;;;;;28.02;13.73;;;;;;;;;;5125129;27;20031;-62
2022/01/11 05:58:22;;;;;;;26.80;13.13;;;;;;;;;;5124330;28;20085;-61
2022/01/11 06:00:48;;;;;;;28.27;13.20;;;;;;;;;;5125906;28;20043;-60
2022/01/11 06:03:14;;;;;;;20.85;9.70;;;;;;;;;;5124144;27;20672;-61
2022/01/11 06:05:40;;;;;;;27.13;12.82;;;;;;;;;;5122894;27;20126;-61
2022/01/11 06:08:07;;;;;;;31.58;14.70;;;;;;;;;;5119880;27;20035;-60
2022/01/11 06:10:33;;;;;;;30.92;15.07;;;;;;;;;;5127815;27;20120;-62
2022/01/11 06:12:59;;;;;;;28.98;15.15;;;;;;;;;;5131621;27;20038;-61
2022/01/11 06:15:28;;;;;;;28.98;13.60;;;;;;;;;;5131316;27;20127;-62
2022/01/11 06:17:54;;;;;;;27.10;14.02;;;;;;;;;;5115736;27;20043;-61
2022/01/11 06:20:21;;;;;;;25.90;13.55;;;;;;;;;;5131984;27;20047;-62
2022/01/11 06:22:46;;;;;;;28.35;13.50;;;;;;;;;;5131503;27;20043;-62
2022/01/11 06:25:13;;;;;;;26.75;13.63;;;;;;;;;;5132979;27;20043;-60
2022/01/11 06:27:40;;;;;;;28.30;14.18;;;;;;;;;;5133105;27;20093;-61
2022/01/11 06:30:07;;;;;;;27.48;13.40;;;;;;;;;;5131610;27;20408;-61
2022/01/11 06:32:33;;;;;;;26.75;13.32;;;;;;;;;;5130444;27;20422;-60
2022/01/11 06:34:59;;;;;;;23.13;12.82;;;;;;;;;;5132411;27;20031;-61
2022/01/11 06:37:25;;;;;;;26.23;13.02;;;;;;;;;;5130494;27;20046;-61
2022/01/11 06:39:51;;;;;;;26.92;13.55;;;;;;;;;;5130309;27;20038;-61
2022/01/11 06:42:17;;;;;;;23.92;12.70;;;;;;;;;;5131074;27;20056;-61
2022/01/11 06:44:44;;;;;;;24.27;12.30;;;;;;;;;;5131201;27;20050;-61
2022/01/11 06:47:10;;;;;;;24.88;12.65;;;;;;;;;;5133264;27;20072;-61
2022/01/11 06:49:36;;;;;;;24.90;12.25;;;;;;;;;;5131632;27;20039;-62
2022/01/11 06:52:03;;;;;;;21.70;11.95;;;;;;;;;;5131747;27;20062;-62
2022/01/11 06:54:29;;;;;;;20.65;12.15;;;;;;;;;;5132275;27;20035;-60
2022/01/11 06:56:55;;;;;;;19.73;11.45;;;;;;;;;;5132039;27;20062;-61
2022/01/11 06:59:22;;;;;;;24.30;12.30;;;;;;;;;;5131349;27;20054;-60
2022/01/11 07:01:48;;;;;;;24.48;11.57;;;;;;;;;;5132725;27;20442;-61
2022/01/11 07:04:15;;;;;;;25.13;12.35;;;;;;;;;;5120050;27;20428;-61
2022/01/11 07:06:41;;;;;;;21.45;12.18;;;;;;;;;;5132504;27;20039;-62
2022/01/11 07:09:07;;;;;;;22.08;11.35;;;;;;;;;;5129943;27;20043;-62
2022/01/11 07:11:33;;;;;;;21.98;10.70;;;;;;;;;;5128923;27;20408;-61
2022/01/11 07:14:02;;;;;;;22.92;11.35;;;;;;;;;;5132460;27;20027;-61
2022/01/11 07:16:28;;;;;;;21.90;10.80;;;;;;;;;;5130967;27;20079;-61
2022/01/11 07:18:54;;;;;;;21.85;11.98;;;;;;;;;;5130731;27;20042;-61
2022/01/11 07:21:20;;;;;;;19.42;11.10;;;;;;;;;;5132837;27;20408;-61
2022/01/11 07:23:46;;;;;;;23.63;11.43;;;;;;;;;;5126920;27;20039;-61
2022/01/11 07:26:12;;;;;;;21.10;10.95;;;;;;;;;;5130167;27;20051;-61
2022/01/11 07:28:38;;;;;;;22.05;11.15;;;;;;;;;;5131278;27;20092;-62
2022/01/11 07:31:04;;;;;;;24.52;11.95;;;;;;;;;;5130930;27;20089;-61
2022/01/11 07:33:30;;;;;;;27.67;11.50;;;;;;;;;;5132244;27;20027;-61
2022/01/11 07:35:56;;;;;;;21.38;10.57;;;;;;;;;;5132187;27;20070;-61
2022/01/11 07:38:22;;;;;;;20.73;11.07;;;;;;;;;;5131236;27;20039;-61
2022/01/11 07:40:48;;;;;;;21.30;11.32;;;;;;;;;;5128218;27;20035;-60
2022/01/11 07:43:14;;;;;;;20.30;11.60;;;;;;;;;;5130208;27;20104;-60
2022/01/11 07:45:40;;;;;;;24.92;11.50;;;;;;;;;;5129469;27;20039;-61
2022/01/11 07:48:06;;;;;;;17.98;10.27;;;;;;;;;;5131378;27;20087;-62
2022/01/11 07:50:32;;;;;;;19.98;11.32;;;;;;;;;;5131531;27;20039;-62
2022/01/11 07:52:59;;;;;;;21.70;11.15;;;;;;;;;;5128131;27;20449;-61
2022/01/11 07:55:25;;;;;;;23.02;11.68;;;;;;;;;;5126623;27;20428;-61
2022/01/11 07:57:51;;;;;;;21.63;11.75;;;;;;;;;;5126494;27;20445;-62
2022/01/11 08:00:17;;;;;;;20.92;11.02;;;;;;;;;;5130481;27;20039;-61
2022/01/11 08:02:43;;;;;;;22.80;11.07;;;;;;;;;;5128064;27;20039;-61
2022/01/11 08:05:09;;;;;;;23.27;12.27;;;;;;;;;;5127998;27;20090;-61
2022/01/11 08:07:35;;;;;;;22.20;12.02;;;;;;;;;;5129123;27;20035;-62
2022/01/11 08:10:01;;;;;;;22.38;11.43;;;;;;;;;;5128989;27;20043;-62
2022/01/11 08:12:27;;;;;;;21.98;11.50;;;;;;;;;;5126871;27;20039;-60
2022/01/11 08:14:53;;;;;;;21.48;12.00;;;;;;;;;;5128155;27;20070;-62
2022/01/11 08:17:20;;;;;;;24.85;12.20;;;;;;;;;;5127212;27;20102;-62
2022/01/11 08:19:46;;;;;;;24.80;13.40;;;;;;;;;;5129069;27;20473;-61
2022/01/11 08:22:12;;;;;;;22.30;11.73;;;;;;;;;;5109171;27;20039;-60
2022/01/11 08:24:38;;;;;;;25.75;12.35;;;;;;;;;;5125673;27;20122;-61
2022/01/11 08:27:04;;;;;;;26.30;13.13;;;;;;;;;;5128031;27;20047;-61
2022/01/11 08:29:30;;;;;;;23.48;12.93;;;;;;;;;;5112457;27;20397;-59
2022/01/11 08:31:56;;;;;;;20.90;11.45;;;;;;;;;;5117331;27;20074;-60
2022/01/11 08:34:22;;;;;;;24.90;12.95;;;;;;;;;;5122663;27;20587;-61
2022/01/11 08:36:50;;;;;;;23.80;11.88;;;;;;;;;;5131738;27;20154;-62
2022/01/11 08:39:17;;;;;;;24.23;13.00;;;;;;;;;;5109316;27;20054;-62
2022/01/11 08:41:43;;;;;;;24.65;12.45;;;;;;;;;;5110938;28;20035;-62
2022/01/11 08:44:12;;;;;;;25.52;12.75;;;;;;;;;;5121171;27;20039;-62
2022/01/11 08:46:40;;;;;;;22.83;12.02;;;;;;;;;;5107835;27;20115;-63
2022/01/11 08:49:06;;;;;;;30.27;13.18;;;;;;;;;;5116857;27;20047;-62
2022/01/11 08:51:32;;;;;;;26.15;13.48;;;;;;;;;;5110897;28;20082;-61
2022/01/11 08:53:58;;;;;;;26.92;12.88;;;;;;;;;;5124052;27;20063;-61
2022/01/11 08:56:25;;;;;;;27.42;14.75;;;;;;;;;;5108063;27;20481;-60
2022/01/11 08:58:51;;;;;;;26.27;13.77;;;;;;;;;;5117816;27;20035;-62
2022/01/11 09:01:17;;;;;;;24.90;12.52;;;;;;;;;;5131536;27;20154;-61
2022/01/11 09:03:43;;;;;;;28.67;14.95;;;;;;;;;;5103766;28;20555;-61
2022/01/11 09:06:09;;;;;;;27.63;13.77;;;;;;;;;;5116568;27;20538;-61
2022/01/11 09:08:36;;;;;;;24.77;12.77;;;;;;;;;;5131009;27;20043;-61
2022/01/11 09:11:05;;;;;;;27.10;14.70;;;;;;;;;;5119507;27;20138;-61
2022/01/11 09:13:32;;;;;;;26.67;13.88;;;;;;;;;;5119697;27;20485;-61
2022/01/11 09:15:58;;;;;;;28.92;14.60;;;;;;;;;;5114494;27;20370;-60
2022/01/11 09:18:24;;;;;;;30.38;13.98;;;;;;;;;;5112008;28;20117;-61
2022/01/11 09:20:50;;;;;;;27.20;14.10;;;;;;;;;;5129145;27;20119;-60
2022/01/11 09:23:16;;;;;;;32.00;15.15;;;;;;;;;;5126639;27;20035;-62
2022/01/11 09:25:45;;;;;;;24.95;14.15;;;;;;;;;;5125605;27;20039;-61
2022/01/11 09:28:11;;;;;;;26.35;14.85;;;;;;;;;;5117920;27;20095;-60
2022/01/11 09:30:37;;;;;;;27.73;15.57;;;;;;;;;;5126198;28;20042;-61
2022/01/11 09:33:03;;;;;;;25.85;14.63;;;;;;;;;;5121621;28;20027;-61
2022/01/11 09:35:29;;;;;;;26.70;14.48;;;;;;;;;;5123345;28;20127;-62
2022/01/11 09:37:55;;;;;;;26.70;14.32;;;;;;;;;;5123437;28;20477;-62
2022/01/11 09:40:22;;;;;;;28.42;14.50;;;;;;;;;;5125037;28;20072;-60
2022/01/11 09:42:48;;;;;;;21.80;11.65;;;;;;;;;;5126887;27;20046;-60
2022/01/11 09:45:14;;;;;;;26.90;14.32;;;;;;;;;;5126822;27;20482;-62
2022/01/11 09:47:41;;;;;;;26.70;15.20;;;;;;;;;;5127813;27;20042;-60
2022/01/11 09:50:08;;;;;;;27.42;14.80;;;;;;;;;;5125136;27;20126;-62
2022/01/11 09:52:36;;;;;;;25.23;14.20;;;;;;;;;;5127150;27;20043;-61
2022/01/11 09:55:04;;;;;;;23.08;13.18;;;;;;;;;;5124033;27;20513;-60
2022/01/11 09:57:30;;;;;;;26.92;14.50;;;;;;;;;;5127119;27;20035;-61
2022/01/11 09:59:56;;;;;;;24.20;14.07;;;;;;;;;;5128830;27;20497;-60
2022/01/11 10:02:22;;;;;;;28.67;14.50;;;;;;;;;;5126672;27;20125;-61
2022/01/11 10:04:55;;;;;;;26.17;14.10;;;;;;;;;;5129234;27;20492;-62
2022/01/11 10:07:27;;;;;;;29.67;17.10;;;;;;;;;;5111288;27;20043;-62
2022/01/11 10:09:54;;;;;;;35.05;18.05;;;;;;;;;;5129378;27;20071;-62
2022/01/11 10:12:22;;;;;;;28.20;15.30;;;;;;;;;;5126832;27;20050;-61
2022/01/11 10:14:48;;;;;;;28.92;14.23;;;;;;;;;;5123692;27;20043;-61
2022/01/11 10:17:18;;;;;;;27.75;13.50;;;;;;;;;;5125260;27;20043;-60
2022/01/11 10:19:45;;;;;;;25.20;13.52;;;;;;;;;;5134119;27;20526;-61
2022/01/11 10:22:16;;;;;;;25.88;14.50;;;;;;;;;;5126937;27;20035;-62
2022/01/11 10:24:44;;;;;;;25.30;13.95;;;;;;;;;;5126233;27;20077;-63
2022/01/11 10:27:13;;;;;;;25.05;13.57;;;;;;;;;;5123000;27;20039;-62
2022/01/11 10:29:41;;;;;;;27.85;13.88;;;;;;;;;;5129392;27;20447;-62
2022/01/11 10:32:30;;;;;;;22.48;13.05;;;;;;;;;;5111384;27;20092;-62
2022/01/11 10:35:01;;;;;;;28.10;14.50;;;;;;;;;;5069514;28;20063;-62
2022/01/11 10:37:30;;;;;;;24.42;15.02;;;;;;;;;;5069546;28;20048;-62
2022/01/11 10:40:05;;;;;;;23.38;14.13;;;;;;;;;;5070233;28;20517;-61
2022/01/11 10:42:33;;;;;;;27.65;14.10;;;;;;;;;;5066502;28;20045;-62
2022/01/11 10:45:01;;;;;;;24.13;12.73;;;;;;;;;;5068658;28;20094;-61
2022/01/11 10:47:31;;;;;;;24.90;14.90;;;;;;;;;;5068560;28;20079;-62
2022/01/11 10:50:00;;;;;;;25.48;13.30;;;;;;;;;;5052431;28;20028;-62
2022/01/11 10:52:31;;;;;;;19.88;11.88;;;;;;;;;;5068188;28;20524;-63
2022/01/11 10:54:58;;;;;;;21.02;12.88;;;;;;;;;;5068024;28;20036;-63
2022/01/11 10:57:28;;;;;;;20.38;12.35;;;;;;;;;;5067942;28;20033;-62
2022/01/11 11:00:05;;;;;;;19.92;12.70;;;;;;;;;;5069130;28;20093;-64
2022/01/11 11:02:31;;;;;;;20.27;12.52;;;;;;;;;;5068454;28;20036;-63
2022/01/11 11:05:00;;;;;;;21.90;11.73;;;;;;;;;;5069846;28;20045;-61
2022/01/11 11:07:28;;;;;;;21.85;12.52;;;;;;;;;;5069129;28;20127;-61
2022/01/11 11:09:54;;;;;;;20.02;12.18;;;;;;;;;;5067985;28;20090;-63
2022/01/11 11:12:21;;;;;;;20.27;12.35;;;;;;;;;;5084091;28;20494;-62
2022/01/11 11:14:59;;;;;;;18.48;11.77;;;;;;;;;;5125760;27;20050;-62
2022/01/11 11:17:25;;;;;;;18.58;12.00;;;;;;;;;;5130041;27;20035;-61
2022/01/11 11:19:56;;;;;;;22.10;12.55;;;;;;;;;;5126201;27;20035;-62
2022/01/11 11:22:22;;;;;;;20.85;11.93;;;;;;;;;;5128872;27;20039;-63
2022/01/11 11:24:48;;;;;;;21.38;12.05;;;;;;;;;;5124794;27;20088;-63
2022/01/11 11:27:15;;;;;;;23.77;13.13;;;;;;;;;;5128725;27;20426;-62
2022/01/11 11:29:42;;;;;;;20.60;12.35;;;;;;;;;;5131144;27;20766;-62
2022/01/11 11:32:08;;;;;;;19.05;11.77;;;;;;;;;;5132676;27;20031;-62
2022/01/11 11:34:34;;;;;;;17.40;10.75;;;;;;;;;;5127652;27;20502;-61
2022/01/11 11:37:03;;;;;;;19.25;11.75;;;;;;;;;;5121703;27;20134;-62
2022/01/11 11:39:29;;;;;;;17.02;10.57;;;;;;;;;;5117233;27;20043;-62
2022/01/11 11:41:57;;;;;;;20.83;12.25;;;;;;;;;;5118059;27;20035;-61
2022/01/11 11:44:28;;;;;;;18.70;11.13;;;;;;;;;;5117040;27;20040;-62
2022/01/11 11:46:56;;;;;;;17.42;11.25;;;;;;;;;;5118261;27;20042;-61
2022/01/11 11:49:42;;;;;;;17.67;10.90;;;;;;;;;;5118499;27;20046;-61
2022/01/11 11:52:27;;;;;;;20.70;11.30;;;;;;;;;;5122270;27;20042;-62
2022/01/11 11:55:00;;;;;;;17.30;10.95;;;;;;;;;;5107789;27;20061;-61
2022/01/11 11:57:28;;;;;;;18.45;10.80;;;;;;;;;;5125937;27;20039;-63
2022/01/11 11:59:56;;;;;;;19.35;11.52;;;;;;;;;;5122305;27;20046;-62
2022/01/11 12:02:32;;;;;;;18.52;10.82;;;;;;;;;;5131704;27;20092;-62
2022/01/11 12:04:58;;;;;;;18.08;10.93;;;;;;;;;;5123665;27;20122;-61
2022/01/11 12:07:35;;;;;;;20.35;11.02;;;;;;;;;;5110622;27;20046;-62
2022/01/11 12:10:02;;;;;;;20.80;11.00;;;;;;;;;;5105090;28;20486;-63
2022/01/11 12:12:40;;;;;;;18.70;10.93;;;;;;;;;;5127518;27;20038;-62
2022/01/11 12:15:21;;;;;;;20.15;11.73;;;;;;;;;;5131131;27;20042;-61
2022/01/11 12:18:00;;;;;;;22.08;11.27;;;;;;;;;;5125966;27;20031;-63
2022/01/11 12:20:46;;;;;;;19.27;10.45;;;5.60;99.90;;;;;;5131901;27;20097;-61
2022/01/11 12:23:13;;;;;;;21.73;11.13;;;;;;;;;;5131486;27;20035;-61
2022/01/11 12:25:43;;;;;;;18.70;11.43;;;;;;;;;;5116946;27;20580;-60
2022/01/11 12:28:17;;;;;;;19.33;11.13;;;;;;;;;;5105108;27;20485;-62
2022/01/11 12:30:44;;;;;;;18.27;10.77;;;;;;;;;;5128034;27;20023;-61
2022/01/11 12:33:10;;;;;;;17.27;10.25;;;;;;;;;;5112060;28;20118;-60
2022/01/11 12:35:56;;;;;;;16.52;10.32;;;;;;;;;;5119894;27;20484;-62
2022/01/11 12:38:23;;;;;;;18.48;10.60;;;;;;;;;;5129701;27;20043;-61
2022/01/11 12:40:50;;;;;;;23.23;11.15;;;;;;;;;;5123552;27;20150;-61
2022/01/11 12:43:35;;;;;;;18.65;10.45;;;;;;;;;;5122488;27;20066;-62
2022/01/11 12:46:05;;;;;;;18.42;10.10;;;;;;;;;;5106083;27;20051;-60
2022/01/11 12:48:48;;;;;;;16.00;9.90;;;;;;;;;;5122927;27;20111;-62
2022/01/11 12:51:30;;;;;;;20.35;10.88;;;;;;;;;;5123755;27;20035;-62
2022/01/11 12:54:09;;;;;;;21.13;10.52;;;;;;;;;;5122750;27;20031;-62
2022/01/11 12:56:36;;;;;;;19.02;10.82;;;;;;;;;;5124231;27;20447;-66
2022/01/11 12:59:03;;;;;;;21.70;10.57;;;;;;;;;;5090754;27;20077;-63
2022/01/11 13:01:29;;;;;;;20.02;10.13;;;;;;;;;;5125969;27;20035;-62
2022/01/11 13:03:57;;;;;;;19.10;10.20;;;;;;;;;;5127089;27;20043;-62
2022/01/11 13:06:23;;;;;;;19.08;10.65;;;;;;;;;;5118211;27;20538;-63
2022/01/11 13:08:57;;;;;;;16.63;10.48;;;;;;;;;;5121472;27;20043;-62
2022/01/11 13:11:24;;;;;;;18.15;9.55;;;;;;;;;;5120434;27;20404;-63
2022/01/11 13:14:06;;;;;;;18.65;10.38;;;;;;;;;;5121664;27;20123;-63
2022/01/11 13:16:32;;;;;;;21.37;10.30;;;;;;;;;;5121475;27;20040;-62
2022/01/11 13:19:11;;;;;;;22.80;11.25;;;;;;;;;;5122753;27;20039;-62
2022/01/11 13:21:37;;;;;;;17.58;10.25;;;;;;;;;;5123104;27;20077;-61
2022/01/11 13:24:25;;;;;;;18.90;9.98;;;;;;;;;;5122866;27;20070;-61
2022/01/11 13:26:52;;;;;;;21.95;10.40;;;;;;;;;;5118485;27;20062;-61
2022/01/11 13:29:20;;;;;;;17.75;10.63;;;;;;;;;;5118872;27;20135;-61
2022/01/11 13:31:49;;;;;;;19.73;10.18;;;;;;;;;;5118391;28;20454;-61
2022/01/11 13:34:16;;;;;;;22.25;11.27;;;;;;;;;;5118543;28;20035;-62
2022/01/11 13:36:48;;;;;;;18.23;10.10;;;;;;;;;;5119528;28;20440;-62
2022/01/11 13:39:21;;;;;;;19.52;10.40;;;;;;;;;;5112092;28;20031;-62
2022/01/11 13:41:52;;;;;;;17.08;9.82;;;;;;;;;;5121082;28;20424;-62
2022/01/11 13:44:20;;;;;;;20.10;10.38;;;;;;;;;;5129465;28;20408;-62
2022/01/11 13:46:47;;;;;;;21.25;10.50;;;;;;;;;;5127833;27;20092;-60
2022/01/11 13:49:15;;;;;;;17.98;10.27;;;;;;;;;;5128545;28;20035;-61
2022/01/11 13:51:44;;;;;;;23.75;10.60;;;;;;;;;;5113807;28;20032;-63
2022/01/11 13:54:10;;;;;;;21.20;10.48;;;;;;;;;;5124037;27;20523;-61
2022/01/11 13:56:40;;;;;;;18.85;10.18;;;;;;;;;;5130190;28;20043;-62
2022/01/11 13:59:07;;;;;;;21.50;10.35;;;;;;;;;;5124023;28;20055;-62
2022/01/11 14:01:33;;;;;;;18.92;10.05;;;;;;;;;;5118805;28;20416;-62
2022/01/11 14:04:05;;;;;;;20.67;10.70;;;;;;;;;;5128972;28;20673;-62
2022/01/11 14:06:39;;;;;;;19.08;9.23;;;;;;;;;;5108944;28;20118;-60
2022/01/11 14:09:09;;;;;;;20.40;10.25;;;;;;;;;;5121685;28;20036;-61
2022/01/11 14:11:38;;;;;;;21.63;11.30;;;;;;;;;;5119690;27;20489;-61
2022/01/11 14:14:05;;;;;;;19.40;11.27;;;;;;;;;;5115919;28;20055;-62
2022/01/11 14:16:50;;;;;;;20.50;10.43;;;;;;;;;;5121059;28;20062;-62
2022/01/11 14:19:18;;;;;;;18.02;9.40;;;;;;;;;;5116882;28;20039;-61
2022/01/11 14:22:04;;;;;;;17.67;9.38;;;;;;;;;;5123802;28;20098;-61